sensor_id;sensor_type;location;lat;lon;timestamp;temperature;humidity
19999;DHT22;10160;50.926;4.374;2023-08-08T00:01:16;15.00;99.90
19999;DHT22;10160;50.926;4.374;2023-08-08T00:03:42;15.00;99.90
19999;DHT22;10160;50.926;4.374;2023-08-08T00:06:08;15.00;99.90
19999;DHT22;10160;50.926;4.374;2023-08-08T00:08:33;15.00;99.90
19999;DHT22;10160;50.926;4.374;2023-08-08T00:10:59;15.00;99.90
19999;DHT22;10160;50.926;4.374;2023-08-08T00:13:27;14.90;99.90
19999;DHT22;10160;50.926;4.374;2023-08-08T00:15:53;14.90;99.90
19999;DHT22;10160;50.926;4.374;2023-08-08T00:18:19;14.80;99.90
19999;DHT22;10160;50.926;4.374;2023-08-08T00:20:44;14.70;99.90
19999;DHT22;10160;50.926;4.374;2023-08-08T00:23:10;14.70;99.90
19999;DHT22;10160;50.926;4.374;2023-08-08T00:25:39;14.80;99.90
19999;DHT22;10160;50.926;4.374;2023-08-08T00:28:05;14.70;99.90
19999;DHT22;10160;50.926;4.374;2023-08-08T00:30:30;14.80;99.90
19999;DHT22;10160;50.926;4.374;2023-08-08T00:32:56;14.80;99.90
19999;DHT22;10160;50.926;4.374;2023-08-08T00:35:22;14.70;99.90
19999;DHT22;10160;50.926;4.374;2023-08-08T00:37:48;14.80;99.90
19999;DHT22;10160;50.926;4.374;2023-08-08T00:40:14;14.80;99.90
19999;DHT22;10160;50.926;4.374;2023-08-08T00:42:39;14.70;99.90
19999;DHT22;10160;50.926;4.374;2023-08-08T00:45:05;14.70;99.90
19999;DHT22;10160;50.926;4.374;2023-08-08T00:47:34;14.70;99.90
19999;DHT22;10160;50.926;4.374;2023-08-08T00:50:02;14.50;99.90
19999;DHT22;10160;50.926;4.374;2023-08-08T00:52:28;14.50;99.90
19999;DHT22;10160;50.926;4.374;2023-08-08T00:54:54;14.50;99.90
19999;DHT22;10160;50.926;4.374;2023-08-08T00:57:20;14.60;99.90
19999;DHT22;10160;50.926;4.374;2023-08-08T00:59:45;14.50;99.90
19999;DHT22;10160;50.926;4.374;2023-08-08T01:02:11;14.50;99.90
19999;DHT22;10160;50.926;4.374;2023-08-08T01:04:37;14.50;99.90
19999;DHT22;10160;50.926;4.374;2023-08-08T01:09:48;14.40;99.90
19999;DHT22;10160;50.926;4.374;2023-08-08T01:12:15;14.40;99.90
19999;DHT22;10160;50.926;4.374;2023-08-08T01:14:43;14.50;99.90
19999;DHT22;10160;50.926;4.374;2023-08-08T01:17:10;14.50;99.90
19999;DHT22;10160;50.926;4.374;2023-08-08T01:19:37;14.50;99.90
19999;DHT22;10160;50.926;4.374;2023-08-08T01:22:06;14.40;99.90
19999;DHT22;10160;50.926;4.374;2023-08-08T01:24:33;14.30;99.90
19999;DHT22;10160;50.926;4.374;2023-08-08T01:27:03;14.30;99.90
19999;DHT22;10160;50.926;4.374;2023-08-08T01:29:29;14.30;99.90
19999;DHT22;10160;50.926;4.374;2023-08-08T01:31:55;14.20;99.90
19999;DHT22;10160;50.926;4.374;2023-08-08T01:34:21;14.30;99.90
19999;DHT22;10160;50.926;4.374;2023-08-08T01:36:57;14.30;99.90
19999;DHT22;10160;50.926;4.374;2023-08-08T01:39:30;14.20;99.90
19999;DHT22;10160;50.926;4.374;2023-08-08T01:41:59;14.30;99.90
19999;DHT22;10160;50.926;4.374;2023-08-08T01:44:26;14.30;99.90
19999;DHT22;10160;50.926;4.374;2023-08-08T01:46:54;14.30;99.90
19999;DHT22;10160;50.926;4.374;2023-08-08T01:49:19;14.40;99.90
19999;DHT22;10160;50.926;4.374;2023-08-08T01:51:45;14.50;99.90
19999;DHT22;10160;50.926;4.374;2023-08-08T01:54:11;14.40;99.90
19999;DHT22;10160;50.926;4.374;2023-08-08T01:56:37;14.30;99.90
19999;DHT22;10160;50.926;4.374;2023-08-08T01:59:02;14.30;99.90
19999;DHT22;10160;50.926;4.374;2023-08-08T02:01:28;14.30;99.90
19999;DHT22;10160;50.926;4.374;2023-08-08T02:03:53;14.30;99.90
19999;DHT22;10160;50.926;4.374;2023-08-08T02:06:19;14.30;99.90
19999;DHT22;10160;50.926;4.374;2023-08-08T02:08:45;14.30;99.90
19999;DHT22;10160;50.926;4.374;2023-08-08T02:11:11;14.40;99.90
19999;DHT22;10160;50.926;4.374;2023-08-08T02:13:37;14.40;99.90
19999;DHT22;10160;50.926;4.374;2023-08-08T02:16:02;14.40;99.90
19999;DHT22;10160;50.926;4.374;2023-08-08T02:18:28;14.40;99.90
19999;DHT22;10160;50.926;4.374;2023-08-08T02:20:54;14.40;99.90
19999;DHT22;10160;50.926;4.374;2023-08-08T02:23:19;14.40;99.90
19999;DHT22;10160;50.926;4.374;2023-08-08T02:25:48;14.30;99.90
19999;DHT22;10160;50.926;4.374;2023-08-08T02:28:13;14.30;99.90
19999;DHT22;10160;50.926;4.374;2023-08-08T02:30:39;14.30;99.90
19999;DHT22;10160;50.926;4.374;2023-08-08T02:33:05;14.10;99.90
19999;DHT22;10160;50.926;4.374;2023-08-08T02:35:30;14.20;99.90
19999;DHT22;10160;50.926;4.374;2023-08-08T02:37:56;14.30;99.90
19999;DHT22;10160;50.926;4.374;2023-08-08T02:40:25;14.30;99.90
19999;DHT22;10160;50.926;4.374;2023-08-08T02:42:52;14.20;99.90
19999;DHT22;10160;50.926;4.374;2023-08-08T02:45:17;14.10;99.90
19999;DHT22;10160;50.926;4.374;2023-08-08T02:47:43;14.10;99.90
19999;DHT22;10160;50.926;4.374;2023-08-08T02:50:09;14.10;99.90
19999;DHT22;10160;50.926;4.374;2023-08-08T02:52:35;14.10;99.90
19999;DHT22;10160;50.926;4.374;2023-08-08T02:55:03;14.10;99.90
19999;DHT22;10160;50.926;4.374;2023-08-08T02:57:29;14.00;99.90
19999;DHT22;10160;50.926;4.374;2023-08-08T02:59:55;14.10;99.90
19999;DHT22;10160;50.926;4.374;2023-08-08T03:02:21;14.20;99.90
19999;DHT22;10160;50.926;4.374;2023-08-08T03:04:46;14.30;99.90
19999;DHT22;10160;50.926;4.374;2023-08-08T03:07:12;14.10;99.90
19999;DHT22;10160;50.926;4.374;2023-08-08T03:09:38;14.10;99.90
19999;DHT22;10160;50.926;4.374;2023-08-08T03:12:04;14.10;99.90
19999;DHT22;10160;50.926;4.374;2023-08-08T03:14:29;14.10;99.90
19999;DHT22;10160;50.926;4.374;2023-08-08T03:16:55;14.10;99.90
19999;DHT22;10160;50.926;4.374;2023-08-08T03:19:21;14.00;99.90
19999;DHT22;10160;50.926;4.374;2023-08-08T03:21:46;14.10;99.90
19999;DHT22;10160;50.926;4.374;2023-08-08T03:24:12;14.00;99.90
19999;DHT22;10160;50.926;4.374;2023-08-08T03:26:38;14.00;99.90
19999;DHT22;10160;50.926;4.374;2023-08-08T03:29:03;13.90;99.90
19999;DHT22;10160;50.926;4.374;2023-08-08T03:31:29;13.90;99.90
19999;DHT22;10160;50.926;4.374;2023-08-08T03:33:55;13.90;99.90
19999;DHT22;10160;50.926;4.374;2023-08-08T03:36:20;13.90;99.90
19999;DHT22;10160;50.926;4.374;2023-08-08T03:38:46;13.90;99.90
19999;DHT22;10160;50.926;4.374;2023-08-08T03:41:13;13.90;99.90
19999;DHT22;10160;50.926;4.374;2023-08-08T03:43:39;14.00;99.90
19999;DHT22;10160;50.926;4.374;2023-08-08T03:46:05;13.90;99.90
19999;DHT22;10160;50.926;4.374;2023-08-08T03:48:30;13.80;99.90
19999;DHT22;10160;50.926;4.374;2023-08-08T03:50:56;13.80;99.90
19999;DHT22;10160;50.926;4.374;2023-08-08T03:53:22;13.80;99.90
19999;DHT22;10160;50.926;4.374;2023-08-08T03:55:47;13.70;99.90
19999;DHT22;10160;50.926;4.374;2023-08-08T03:58:13;13.70;99.90
19999;DHT22;10160;50.926;4.374;2023-08-08T04:00:39;13.80;99.90
19999;DHT22;10160;50.926;4.374;2023-08-08T04:03:14;13.70;99.90
19999;DHT22;10160;50.926;4.374;2023-08-08T04:05:40;13.80;99.90
19999;DHT22;10160;50.926;4.374;2023-08-08T04:08:07;13.80;99.90
19999;DHT22;10160;50.926;4.374;2023-08-08T04:10:32;13.80;99.90
19999;DHT22;10160;50.926;4.374;2023-08-08T04:12:58;13.80;99.90
19999;DHT22;10160;50.926;4.374;2023-08-08T04:15:24;13.80;99.90
19999;DHT22;10160;50.926;4.374;2023-08-08T04:17:49;13.80;99.90
19999;DHT22;10160;50.926;4.374;2023-08-08T04:20:15;13.90;99.90
19999;DHT22;10160;50.926;4.374;2023-08-08T04:22:41;13.80;99.90
19999;DHT22;10160;50.926;4.374;2023-08-08T04:25:07;13.80;99.90
19999;DHT22;10160;50.926;4.374;2023-08-08T04:27:33;13.80;99.90
19999;DHT22;10160;50.926;4.374;2023-08-08T04:29:59;13.80;99.90
19999;DHT22;10160;50.926;4.374;2023-08-08T04:32:24;13.80;99.90
19999;DHT22;10160;50.926;4.374;2023-08-08T04:34:50;13.70;99.90
19999;DHT22;10160;50.926;4.374;2023-08-08T04:37:15;13.80;99.90
19999;DHT22;10160;50.926;4.374;2023-08-08T04:39:41;13.70;99.90
19999;DHT22;10160;50.926;4.374;2023-08-08T04:42:07;13.90;99.90
19999;DHT22;10160;50.926;4.374;2023-08-08T04:44:32;13.90;99.90
19999;DHT22;10160;50.926;4.374;2023-08-08T04:46:58;14.00;99.90
19999;DHT22;10160;50.926;4.374;2023-08-08T04:49:23;14.00;99.90
19999;DHT22;10160;50.926;4.374;2023-08-08T04:51:52;14.00;99.90
19999;DHT22;10160;50.926;4.374;2023-08-08T04:54:17;14.10;99.90
19999;DHT22;10160;50.926;4.374;2023-08-08T04:56:43;14.00;99.90
19999;DHT22;10160;50.926;4.374;2023-08-08T04:59:09;14.00;99.90
19999;DHT22;10160;50.926;4.374;2023-08-08T05:01:34;14.00;99.90
19999;DHT22;10160;50.926;4.374;2023-08-08T05:04:00;13.90;99.90
19999;DHT22;10160;50.926;4.374;2023-08-08T05:06:25;13.90;99.90
19999;DHT22;10160;50.926;4.374;2023-08-08T05:08:52;13.80;99.90
19999;DHT22;10160;50.926;4.374;2023-08-08T05:11:17;14.00;99.90
19999;DHT22;10160;50.926;4.374;2023-08-08T05:13:43;14.00;99.90
19999;DHT22;10160;50.926;4.374;2023-08-08T05:16:09;13.90;99.90
19999;DHT22;10160;50.926;4.374;2023-08-08T05:18:34;13.90;99.90
19999;DHT22;10160;50.926;4.374;2023-08-08T05:21:00;14.00;99.90
19999;DHT22;10160;50.926;4.374;2023-08-08T05:23:25;13.90;99.90
19999;DHT22;10160;50.926;4.374;2023-08-08T05:25:51;14.10;99.90
19999;DHT22;10160;50.926;4.374;2023-08-08T05:28:17;14.20;99.90
19999;DHT22;10160;50.926;4.374;2023-08-08T05:30:42;14.20;99.90
19999;DHT22;10160;50.926;4.374;2023-08-08T05:33:08;14.20;99.90
19999;DHT22;10160;50.926;4.374;2023-08-08T05:35:34;14.20;99.90
19999;DHT22;10160;50.926;4.374;2023-08-08T05:37:59;14.30;99.90
19999;DHT22;10160;50.926;4.374;2023-08-08T05:40:25;14.20;99.90
19999;DHT22;10160;50.926;4.374;2023-08-08T05:42:51;14.20;99.90
19999;DHT22;10160;50.926;4.374;2023-08-08T05:45:16;14.30;99.90
19999;DHT22;10160;50.926;4.374;2023-08-08T05:47:42;14.50;99.90
19999;DHT22;10160;50.926;4.374;2023-08-08T05:50:08;14.50;99.90
19999;DHT22;10160;50.926;4.374;2023-08-08T05:52:33;14.50;99.90
19999;DHT22;10160;50.926;4.374;2023-08-08T05:54:59;14.60;99.90
19999;DHT22;10160;50.926;4.374;2023-08-08T05:57:25;14.60;99.90
19999;DHT22;10160;50.926;4.374;2023-08-08T05:59:52;14.50;99.90
19999;DHT22;10160;50.926;4.374;2023-08-08T06:02:17;14.60;99.90
19999;DHT22;10160;50.926;4.374;2023-08-08T06:04:43;14.50;99.90
19999;DHT22;10160;50.926;4.374;2023-08-08T06:07:09;14.50;99.90
19999;DHT22;10160;50.926;4.374;2023-08-08T06:09:35;14.50;99.90
19999;DHT22;10160;50.926;4.374;2023-08-08T06:12:06;14.60;99.90
19999;DHT22;10160;50.926;4.374;2023-08-08T06:14:32;14.80;99.90
19999;DHT22;10160;50.926;4.374;2023-08-08T06:16:58;14.80;99.90
19999;DHT22;10160;50.926;4.374;2023-08-08T06:19:25;14.90;99.90
19999;DHT22;10160;50.926;4.374;2023-08-08T06:21:50;15.00;99.90
19999;DHT22;10160;50.926;4.374;2023-08-08T06:24:16;15.20;99.90
19999;DHT22;10160;50.926;4.374;2023-08-08T06:26:42;15.20;99.90
19999;DHT22;10160;50.926;4.374;2023-08-08T06:29:09;15.30;99.90
19999;DHT22;10160;50.926;4.374;2023-08-08T06:31:36;15.50;99.90
19999;DHT22;10160;50.926;4.374;2023-08-08T06:34:02;15.60;99.90
19999;DHT22;10160;50.926;4.374;2023-08-08T06:36:27;15.80;99.90
19999;DHT22;10160;50.926;4.374;2023-08-08T06:38:53;15.70;99.90
19999;DHT22;10160;50.926;4.374;2023-08-08T06:41:19;15.70;99.90
19999;DHT22;10160;50.926;4.374;2023-08-08T06:43:45;16.00;99.90
19999;DHT22;10160;50.926;4.374;2023-08-08T06:46:10;16.10;99.90
19999;DHT22;10160;50.926;4.374;2023-08-08T06:48:36;16.20;99.90
19999;DHT22;10160;50.926;4.374;2023-08-08T06:51:02;16.30;99.90
19999;DHT22;10160;50.926;4.374;2023-08-08T06:53:27;16.30;99.90
19999;DHT22;10160;50.926;4.374;2023-08-08T06:55:53;16.20;99.90
19999;DHT22;10160;50.926;4.374;2023-08-08T06:58:18;16.40;99.90
19999;DHT22;10160;50.926;4.374;2023-08-08T07:00:44;16.50;99.90
19999;DHT22;10160;50.926;4.374;2023-08-08T07:03:10;16.50;99.90
19999;DHT22;10160;50.926;4.374;2023-08-08T07:05:36;16.60;99.90
19999;DHT22;10160;50.926;4.374;2023-08-08T07:08:03;16.70;99.90
19999;DHT22;10160;50.926;4.374;2023-08-08T07:10:29;16.70;99.90
19999;DHT22;10160;50.926;4.374;2023-08-08T07:12:55;16.60;99.90
19999;DHT22;10160;50.926;4.374;2023-08-08T07:15:20;16.40;99.90
19999;DHT22;10160;50.926;4.374;2023-08-08T07:17:46;16.50;99.90
19999;DHT22;10160;50.926;4.374;2023-08-08T07:20:12;16.60;99.90
19999;DHT22;10160;50.926;4.374;2023-08-08T07:22:41;16.60;99.90
19999;DHT22;10160;50.926;4.374;2023-08-08T07:25:07;16.70;99.90
19999;DHT22;10160;50.926;4.374;2023-08-08T07:27:32;16.60;99.90
19999;DHT22;10160;50.926;4.374;2023-08-08T07:29:58;16.70;99.90
19999;DHT22;10160;50.926;4.374;2023-08-08T07:32:26;16.60;99.90
19999;DHT22;10160;50.926;4.374;2023-08-08T07:34:51;16.60;99.90
19999;DHT22;10160;50.926;4.374;2023-08-08T07:37:17;16.50;99.90
19999;DHT22;10160;50.926;4.374;2023-08-08T07:39:43;16.40;99.90
19999;DHT22;10160;50.926;4.374;2023-08-08T07:42:09;16.50;99.90
19999;DHT22;10160;50.926;4.374;2023-08-08T07:44:34;16.50;99.90
19999;DHT22;10160;50.926;4.374;2023-08-08T07:47:04;16.60;99.90
19999;DHT22;10160;50.926;4.374;2023-08-08T07:49:29;16.80;99.90
19999;DHT22;10160;50.926;4.374;2023-08-08T07:51:55;16.80;99.90
19999;DHT22;10160;50.926;4.374;2023-08-08T07:54:21;16.70;99.90
19999;DHT22;10160;50.926;4.374;2023-08-08T07:56:49;16.60;99.90
19999;DHT22;10160;50.926;4.374;2023-08-08T07:59:15;16.70;99.90
19999;DHT22;10160;50.926;4.374;2023-08-08T08:01:41;16.90;99.90
19999;DHT22;10160;50.926;4.374;2023-08-08T08:04:07;16.90;99.90
19999;DHT22;10160;50.926;4.374;2023-08-08T08:06:32;16.90;99.90
19999;DHT22;10160;50.926;4.374;2023-08-08T08:08:58;16.80;99.90
19999;DHT22;10160;50.926;4.374;2023-08-08T08:11:24;16.80;99.90
19999;DHT22;10160;50.926;4.374;2023-08-08T08:13:50;16.90;99.90
19999;DHT22;10160;50.926;4.374;2023-08-08T08:16:15;16.80;99.90
19999;DHT22;10160;50.926;4.374;2023-08-08T08:18:41;16.80;99.90
19999;DHT22;10160;50.926;4.374;2023-08-08T08:21:07;16.90;99.90
19999;DHT22;10160;50.926;4.374;2023-08-08T08:23:33;16.90;99.90
19999;DHT22;10160;50.926;4.374;2023-08-08T08:25:59;16.90;99.90
19999;DHT22;10160;50.926;4.374;2023-08-08T08:28:25;16.90;99.90
19999;DHT22;10160;50.926;4.374;2023-08-08T08:30:51;17.10;99.90
19999;DHT22;10160;50.926;4.374;2023-08-08T08:33:17;17.20;99.90
19999;DHT22;10160;50.926;4.374;2023-08-08T08:35:42;17.50;99.90
19999;DHT22;10160;50.926;4.374;2023-08-08T08:38:08;17.40;99.90
19999;DHT22;10160;50.926;4.374;2023-08-08T08:40:40;17.20;99.90
19999;DHT22;10160;50.926;4.374;2023-08-08T08:43:07;17.20;99.90
19999;DHT22;10160;50.926;4.374;2023-08-08T08:45:37;17.30;99.90
19999;DHT22;10160;50.926;4.374;2023-08-08T08:48:10;17.10;99.90
19999;DHT22;10160;50.926;4.374;2023-08-08T08:50:38;17.10;99.90
19999;DHT22;10160;50.926;4.374;2023-08-08T08:53:05;17.20;99.90
19999;DHT22;10160;50.926;4.374;2023-08-08T08:55:31;17.40;99.90
19999;DHT22;10160;50.926;4.374;2023-08-08T08:57:57;17.70;99.90
19999;DHT22;10160;50.926;4.374;2023-08-08T09:00:23;17.90;99.90
19999;DHT22;10160;50.926;4.374;2023-08-08T09:02:50;18.00;99.90
19999;DHT22;10160;50.926;4.374;2023-08-08T09:05:18;18.40;99.90
19999;DHT22;10160;50.926;4.374;2023-08-08T09:07:47;18.60;99.90
19999;DHT22;10160;50.926;4.374;2023-08-08T09:10:15;18.70;99.90
19999;DHT22;10160;50.926;4.374;2023-08-08T09:12:41;18.90;99.90
19999;DHT22;10160;50.926;4.374;2023-08-08T09:15:07;18.90;99.90
19999;DHT22;10160;50.926;4.374;2023-08-08T09:17:33;18.90;99.90
19999;DHT22;10160;50.926;4.374;2023-08-08T09:20:02;19.10;99.90
19999;DHT22;10160;50.926;4.374;2023-08-08T09:22:29;19.20;99.90
19999;DHT22;10160;50.926;4.374;2023-08-08T09:24:55;19.40;99.90
19999;DHT22;10160;50.926;4.374;2023-08-08T09:27:20;19.50;99.90
19999;DHT22;10160;50.926;4.374;2023-08-08T09:29:46;19.40;99.90
19999;DHT22;10160;50.926;4.374;2023-08-08T09:32:12;19.40;99.90
19999;DHT22;10160;50.926;4.374;2023-08-08T09:34:41;19.20;99.90
19999;DHT22;10160;50.926;4.374;2023-08-08T09:37:08;19.20;99.90
19999;DHT22;10160;50.926;4.374;2023-08-08T09:39:33;19.40;99.90
19999;DHT22;10160;50.926;4.374;2023-08-08T09:42:01;19.60;99.90
19999;DHT22;10160;50.926;4.374;2023-08-08T09:44:27;19.60;99.90
19999;DHT22;10160;50.926;4.374;2023-08-08T09:46:55;19.60;99.90
19999;DHT22;10160;50.926;4.374;2023-08-08T09:49:22;19.80;99.90
19999;DHT22;10160;50.926;4.374;2023-08-08T09:51:48;19.90;99.90
19999;DHT22;10160;50.926;4.374;2023-08-08T09:54:15;19.80;99.90
19999;DHT22;10160;50.926;4.374;2023-08-08T09:56:41;19.60;99.90
19999;DHT22;10160;50.926;4.374;2023-08-08T09:59:07;19.30;99.90
19999;DHT22;10160;50.926;4.374;2023-08-08T10:01:34;19.20;99.90
19999;DHT22;10160;50.926;4.374;2023-08-08T10:04:06;18.90;99.90
19999;DHT22;10160;50.926;4.374;2023-08-08T10:06:32;18.90;99.90
19999;DHT22;10160;50.926;4.374;2023-08-08T10:08:59;19.00;99.90
19999;DHT22;10160;50.926;4.374;2023-08-08T10:11:25;19.10;99.90
19999;DHT22;10160;50.926;4.374;2023-08-08T10:13:53;19.40;99.90
19999;DHT22;10160;50.926;4.374;2023-08-08T10:16:19;19.40;99.90
19999;DHT22;10160;50.926;4.374;2023-08-08T10:18:58;19.40;99.90
19999;DHT22;10160;50.926;4.374;2023-08-08T10:21:24;19.30;99.90
19999;DHT22;10160;50.926;4.374;2023-08-08T10:24:07;19.20;99.90
19999;DHT22;10160;50.926;4.374;2023-08-08T10:26:33;19.00;99.90
19999;DHT22;10160;50.926;4.374;2023-08-08T10:29:00;19.10;99.90
19999;DHT22;10160;50.926;4.374;2023-08-08T10:31:27;19.00;99.90
19999;DHT22;10160;50.926;4.374;2023-08-08T10:34:03;18.90;99.90
19999;DHT22;10160;50.926;4.374;2023-08-08T10:36:43;18.70;99.90
19999;DHT22;10160;50.926;4.374;2023-08-08T10:39:15;18.80;99.90
19999;DHT22;10160;50.926;4.374;2023-08-08T10:41:49;18.90;99.90
19999;DHT22;10160;50.926;4.374;2023-08-08T10:44:24;19.00;99.90
19999;DHT22;10160;50.926;4.374;2023-08-08T10:46:52;19.10;99.90
19999;DHT22;10160;50.926;4.374;2023-08-08T10:49:18;19.10;99.90
19999;DHT22;10160;50.926;4.374;2023-08-08T10:51:45;19.00;99.90
19999;DHT22;10160;50.926;4.374;2023-08-08T10:54:24;19.00;99.90
19999;DHT22;10160;50.926;4.374;2023-08-08T10:56:55;19.20;99.90
19999;DHT22;10160;50.926;4.374;2023-08-08T10:59:25;19.50;99.90
19999;DHT22;10160;50.926;4.374;2023-08-08T11:01:52;19.70;99.90
19999;DHT22;10160;50.926;4.374;2023-08-08T11:04:23;19.90;99.90
19999;DHT22;10160;50.926;4.374;2023-08-08T11:06:53;20.10;99.90
19999;DHT22;10160;50.926;4.374;2023-08-08T11:09:20;20.00;99.90
19999;DHT22;10160;50.926;4.374;2023-08-08T11:11:46;20.10;99.90
19999;DHT22;10160;50.926;4.374;2023-08-08T11:14:15;20.20;99.90
19999;DHT22;10160;50.926;4.374;2023-08-08T11:16:42;20.60;99.90
19999;DHT22;10160;50.926;4.374;2023-08-08T11:19:11;20.60;99.90
19999;DHT22;10160;50.926;4.374;2023-08-08T11:21:44;20.50;99.90
19999;DHT22;10160;50.926;4.374;2023-08-08T11:24:13;20.30;99.90
19999;DHT22;10160;50.926;4.374;2023-08-08T11:26:43;20.50;99.90
19999;DHT22;10160;50.926;4.374;2023-08-08T11:29:10;20.70;99.90
19999;DHT22;10160;50.926;4.374;2023-08-08T11:31:37;20.60;99.90
19999;DHT22;10160;50.926;4.374;2023-08-08T11:34:04;20.60;99.90
19999;DHT22;10160;50.926;4.374;2023-08-08T11:36:34;20.50;99.90
19999;DHT22;10160;50.926;4.374;2023-08-08T11:39:02;20.50;99.90
19999;DHT22;10160;50.926;4.374;2023-08-08T11:41:37;20.80;99.90
19999;DHT22;10160;50.926;4.374;2023-08-08T11:44:03;21.00;99.90
19999;DHT22;10160;50.926;4.374;2023-08-08T11:46:30;21.00;99.90
19999;DHT22;10160;50.926;4.374;2023-08-08T11:49:03;21.00;99.90
19999;DHT22;10160;50.926;4.374;2023-08-08T11:51:29;21.10;99.90
19999;DHT22;10160;50.926;4.374;2023-08-08T11:53:54;21.20;99.90
19999;DHT22;10160;50.926;4.374;2023-08-08T11:56:20;21.30;99.90
19999;DHT22;10160;50.926;4.374;2023-08-08T11:58:50;21.10;99.90
19999;DHT22;10160;50.926;4.374;2023-08-08T12:01:22;21.00;99.90
19999;DHT22;10160;50.926;4.374;2023-08-08T12:03:48;21.20;99.90
19999;DHT22;10160;50.926;4.374;2023-08-08T12:06:15;21.20;99.90
19999;DHT22;10160;50.926;4.374;2023-08-08T12:08:42;21.00;99.90
19999;DHT22;10160;50.926;4.374;2023-08-08T12:11:09;21.30;99.90
19999;DHT22;10160;50.926;4.374;2023-08-08T12:13:37;21.40;99.90
19999;DHT22;10160;50.926;4.374;2023-08-08T12:16:05;21.60;99.90
19999;DHT22;10160;50.926;4.374;2023-08-08T12:18:32;21.50;99.90
19999;DHT22;10160;50.926;4.374;2023-08-08T12:20:58;21.60;99.90
19999;DHT22;10160;50.926;4.374;2023-08-08T12:23:25;21.80;99.90
19999;DHT22;10160;50.926;4.374;2023-08-08T12:25:51;22.30;99.90
19999;DHT22;10160;50.926;4.374;2023-08-08T12:28:17;22.90;99.90
19999;DHT22;10160;50.926;4.374;2023-08-08T12:30:42;23.00;99.90
19999;DHT22;10160;50.926;4.374;2023-08-08T12:33:08;22.80;99.90
19999;DHT22;10160;50.926;4.374;2023-08-08T12:35:34;22.30;99.90
19999;DHT22;10160;50.926;4.374;2023-08-08T12:37:59;22.30;99.90
19999;DHT22;10160;50.926;4.374;2023-08-08T12:40:25;22.40;99.90
19999;DHT22;10160;50.926;4.374;2023-08-08T12:42:51;22.50;99.90
19999;DHT22;10160;50.926;4.374;2023-08-08T12:45:16;22.60;99.90
19999;DHT22;10160;50.926;4.374;2023-08-08T12:47:43;22.40;99.90
19999;DHT22;10160;50.926;4.374;2023-08-08T12:50:09;22.20;99.90
19999;DHT22;10160;50.926;4.374;2023-08-08T12:52:35;22.40;99.90
19999;DHT22;10160;50.926;4.374;2023-08-08T12:55:01;22.50;99.90
19999;DHT22;10160;50.926;4.374;2023-08-08T12:57:28;22.60;99.90
19999;DHT22;10160;50.926;4.374;2023-08-08T12:59:54;22.60;99.90
19999;DHT22;10160;50.926;4.374;2023-08-08T13:02:20;22.30;99.90
19999;DHT22;10160;50.926;4.374;2023-08-08T13:04:45;21.70;99.90
19999;DHT22;10160;50.926;4.374;2023-08-08T13:07:11;21.50;99.90
19999;DHT22;10160;50.926;4.374;2023-08-08T13:09:37;21.60;99.90
19999;DHT22;10160;50.926;4.374;2023-08-08T13:12:04;21.60;99.90
19999;DHT22;10160;50.926;4.374;2023-08-08T13:14:33;21.30;99.90
19999;DHT22;10160;50.926;4.374;2023-08-08T13:16:59;21.10;99.90
19999;DHT22;10160;50.926;4.374;2023-08-08T13:19:24;21.30;99.90
19999;DHT22;10160;50.926;4.374;2023-08-08T13:21:54;21.30;99.90
19999;DHT22;10160;50.926;4.374;2023-08-08T13:24:20;21.20;99.90
19999;DHT22;10160;50.926;4.374;2023-08-08T13:26:48;21.30;99.90
19999;DHT22;10160;50.926;4.374;2023-08-08T13:29:14;21.50;99.90
19999;DHT22;10160;50.926;4.374;2023-08-08T13:31:40;21.50;99.90
19999;DHT22;10160;50.926;4.374;2023-08-08T13:34:06;21.30;99.90
19999;DHT22;10160;50.926;4.374;2023-08-08T13:36:31;21.30;99.90
19999;DHT22;10160;50.926;4.374;2023-08-08T13:38:57;21.10;99.90
19999;DHT22;10160;50.926;4.374;2023-08-08T13:41:23;21.20;99.90
19999;DHT22;10160;50.926;4.374;2023-08-08T13:43:52;21.60;99.90
19999;DHT22;10160;50.926;4.374;2023-08-08T13:46:18;21.70;99.90
19999;DHT22;10160;50.926;4.374;2023-08-08T13:48:43;21.70;99.90
19999;DHT22;10160;50.926;4.374;2023-08-08T13:51:09;21.70;99.90
19999;DHT22;10160;50.926;4.374;2023-08-08T13:53:35;21.80;99.90
19999;DHT22;10160;50.926;4.374;2023-08-08T13:56:00;22.00;99.90
19999;DHT22;10160;50.926;4.374;2023-08-08T13:58:26;22.30;99.90
19999;DHT22;10160;50.926;4.374;2023-08-08T14:00:52;22.70;99.90
19999;DHT22;10160;50.926;4.374;2023-08-08T14:03:18;22.50;99.90
19999;DHT22;10160;50.926;4.374;2023-08-08T14:05:44;22.20;99.90
19999;DHT22;10160;50.926;4.374;2023-08-08T14:08:10;21.70;99.90
19999;DHT22;10160;50.926;4.374;2023-08-08T14:10:36;21.40;99.90
19999;DHT22;10160;50.926;4.374;2023-08-08T14:13:02;21.10;99.90
19999;DHT22;10160;50.926;4.374;2023-08-08T14:15:28;20.90;99.90
19999;DHT22;10160;50.926;4.374;2023-08-08T14:17:54;20.70;99.90
19999;DHT22;10160;50.926;4.374;2023-08-08T14:20:20;20.70;99.90
19999;DHT22;10160;50.926;4.374;2023-08-08T14:22:46;20.60;99.90
19999;DHT22;10160;50.926;4.374;2023-08-08T14:25:13;20.60;99.90
19999;DHT22;10160;50.926;4.374;2023-08-08T14:27:39;20.50;99.90
19999;DHT22;10160;50.926;4.374;2023-08-08T14:30:05;20.40;99.90
19999;DHT22;10160;50.926;4.374;2023-08-08T14:32:31;20.30;99.90
19999;DHT22;10160;50.926;4.374;2023-08-08T14:34:56;20.30;99.90
19999;DHT22;10160;50.926;4.374;2023-08-08T14:37:22;20.30;99.90
19999;DHT22;10160;50.926;4.374;2023-08-08T14:39:48;20.20;99.90
19999;DHT22;10160;50.926;4.374;2023-08-08T14:42:13;20.20;99.90
19999;DHT22;10160;50.926;4.374;2023-08-08T14:44:39;20.10;99.90
19999;DHT22;10160;50.926;4.374;2023-08-08T14:47:05;20.20;99.90
19999;DHT22;10160;50.926;4.374;2023-08-08T14:49:31;20.00;99.90
19999;DHT22;10160;50.926;4.374;2023-08-08T14:51:57;20.10;99.90
19999;DHT22;10160;50.926;4.374;2023-08-08T14:54:23;20.00;99.90
19999;DHT22;10160;50.926;4.374;2023-08-08T14:56:49;19.90;99.90
19999;DHT22;10160;50.926;4.374;2023-08-08T14:59:16;20.00;99.90
19999;DHT22;10160;50.926;4.374;2023-08-08T15:01:41;20.10;99.90
19999;DHT22;10160;50.926;4.374;2023-08-08T15:04:07;20.30;99.90
19999;DHT22;10160;50.926;4.374;2023-08-08T15:06:33;20.30;99.90
19999;DHT22;10160;50.926;4.374;2023-08-08T15:08:58;20.20;99.90
19999;DHT22;10160;50.926;4.374;2023-08-08T15:11:24;20.20;99.90
19999;DHT22;10160;50.926;4.374;2023-08-08T15:13:50;20.20;99.90
19999;DHT22;10160;50.926;4.374;2023-08-08T15:16:18;20.20;99.90
19999;DHT22;10160;50.926;4.374;2023-08-08T15:18:44;20.00;99.90
19999;DHT22;10160;50.926;4.374;2023-08-08T15:21:09;19.80;99.90
19999;DHT22;10160;50.926;4.374;2023-08-08T15:23:35;19.70;99.90
19999;DHT22;10160;50.926;4.374;2023-08-08T15:26:01;19.50;99.90
19999;DHT22;10160;50.926;4.374;2023-08-08T15:28:27;19.70;99.90